INFORMACIÓN METAR y TAF
METAR FOR VYMD
ADDS - METARS form results

(1819 UTC 18 April 2019)
Data provider http://aviationweather.gov/metar/data/
 
METAR text: VYMD 181730Z 18005KT 5000 BKN020 FEW025CB 29/18 Q1005
Conditions at: VYMD (MANDALAY , MM) observed 1730 UTC 18 April 2019
Temperature: 29.0°C (84°F)
Dewpoint: 18.0°C (64°F) [RH = 52%]
Pressure (altimeter): 29.68 inches Hg (1005.0 mb)
Winds: from the S (180 degrees) at 6 MPH (5 knots; 2.6 m/s)
Visibility: 3 miles ( 5 km)
Ceiling: 2000 feet AGL
Clouds: broken clouds at 2000 feet AGL
few clouds at 2500 feet AGL
Weather: no significant weather observed at this time

 MAPA DE AEROPUERTO

 INFORMACIÓN DE PISTA
Pista 17 Longitud 14003 ft Ancho 200 ft
Elevación 300 ft Umbral desplazado 0 ft Rumbo de pista 171
Pista 35 Longitud 14003 ft Ancho 200 ft
Elevación 300 ft Umbral desplazado 0 ft Rumbo de pista 351

 FRECUANCIAS DEL AEROPUERTO
Tipo APP Nombre APP Frecuencia 119.2 MHZ
Tipo GND Nombre GND Frecuencia 121.725 MHZ
Tipo TWR Nombre TWR Frecuencia 118.6 MHZ

 RADIO AYUDAS DEL AEROPUERTO
Tipo VOR-DME Nombre Mandalay Frecuencia 116300 KHZ
Tipo NDB Nombre Mandalay Frecuencia 259 KHZ



Powered by Virtual Airlines Manager [v2.6.2]